createdAt,value
2023-02-26T00:01:19.607Z,101845.09
2023-02-26T00:03:50.510Z,101850.03
2023-02-26T00:06:17.168Z,101852.47
2023-02-26T00:08:43.702Z,101862.31
2023-02-26T00:11:11.702Z,101846.66
2023-02-26T00:13:41.201Z,101847.28
2023-02-26T00:16:21.610Z,101854.78
2023-02-26T00:18:48.475Z,101846.81
2023-02-26T00:21:20.252Z,101843.16
2023-02-26T00:23:47.155Z,101837.97
2023-02-26T00:26:13.878Z,101836.09
2023-02-26T00:28:41.059Z,101831.09
2023-02-26T00:31:08.397Z,101836.28
2023-02-26T00:33:35.229Z,101831.38
2023-02-26T00:36:20.518Z,101839.22
2023-02-26T00:38:57.432Z,101833.56
2023-02-26T00:41:24.342Z,101826.09
2023-02-26T00:43:51.312Z,101829.16
2023-02-26T00:46:46.915Z,101826.34
2023-02-26T00:49:16.612Z,101841.38
2023-02-26T00:51:51.692Z,101837.75
2023-02-26T00:54:19.952Z,101844.44
2023-02-26T00:56:46.506Z,101835.47
2023-02-26T00:59:13.054Z,101831.75
2023-02-26T01:01:39.787Z,101843.53
2023-02-26T01:04:06.942Z,101838.94
2023-02-26T01:06:35.692Z,101848.78
2023-02-26T01:09:11.009Z,101850.06
2023-02-26T01:11:38.078Z,101856.44
2023-02-26T01:14:05.492Z,101852.59
2023-02-26T01:16:41.975Z,101853.13
2023-02-26T01:19:21.049Z,101853.25
2023-02-26T01:21:54.131Z,101854.50
2023-02-26T01:24:24.084Z,101861.81
2023-02-26T01:26:50.847Z,101861.41
2023-02-26T01:29:17.581Z,101857.56
2023-02-26T01:32:02.114Z,101871.13
2023-02-26T01:34:36.985Z,101866.31
2023-02-26T01:37:35.393Z,101864.34
2023-02-26T01:40:27.998Z,101868.41
2023-02-26T01:42:59.618Z,101873.09
2023-02-26T01:45:33.768Z,101876.34
2023-02-26T01:48:58.902Z,101883.75
2023-02-26T01:51:49.736Z,101893.56
2023-02-26T01:54:20.693Z,101896.69
2023-02-26T01:56:51.843Z,101905.84
2023-02-26T01:59:24.274Z,101913.50
2023-02-26T02:01:54.079Z,101920.38
2023-02-26T02:04:20.913Z,101923.84
2023-02-26T02:06:48.024Z,101926.00
2023-02-26T02:09:14.657Z,101939.47
2023-02-26T02:11:56.212Z,101952.84
2023-02-26T02:14:46.357Z,101951.78
2023-02-26T02:17:26.600Z,101963.75
2023-02-26T02:20:36.279Z,101983.47
2023-02-26T02:23:08.445Z,101994.41
2023-02-26T02:26:09.420Z,102009.72
2023-02-26T02:29:13.010Z,102015.06
2023-02-26T02:31:44.275Z,102036.91
2023-02-26T02:34:20.880Z,102047.63
2023-02-26T02:37:10.457Z,102054.75
2023-02-26T02:40:01.861Z,102079.19
2023-02-26T02:42:46.408Z,102092.28
2023-02-26T02:45:18.937Z,102101.59
2023-02-26T02:47:50.112Z,102115.84
2023-02-26T02:50:22.324Z,102121.03
2023-02-26T02:52:54.385Z,102128.41
2023-02-26T02:55:32.380Z,102146.31
2023-02-26T02:58:10.720Z,102145.47
2023-02-26T03:00:42.428Z,102150.88
2023-02-26T03:03:28.704Z,102165.56
2023-02-26T03:05:55.193Z,102167.44
2023-02-26T03:08:27.510Z,102171.94
2023-02-26T03:10:54.133Z,102178.97
2023-02-26T03:13:23.646Z,102183.09
2023-02-26T03:16:14.858Z,102172.38
2023-02-26T03:18:50.300Z,102179.63
2023-02-26T03:21:45.168Z,102187.13
2023-02-26T03:24:32.745Z,102185.47
2023-02-26T03:27:34.086Z,102195.09
2023-02-26T03:30:16.209Z,102202.41
2023-02-26T03:32:51.471Z,102207.41
2023-02-26T03:35:26.838Z,102201.16
2023-02-26T03:37:58.481Z,102211.25
2023-02-26T03:40:30.607Z,102213.44
2023-02-26T03:43:05.211Z,102217.22
2023-02-26T03:45:34.989Z,102227.13
2023-02-26T03:48:05.254Z,102227.94
2023-02-26T03:50:44.112Z,102235.06
2023-02-26T03:53:15.602Z,102240.28
2023-02-26T03:55:50.497Z,102240.66
2023-02-26T03:58:17.119Z,102239.75
2023-02-26T04:00:47.843Z,102244.22
2023-02-26T04:03:27.019Z,102257.06
2023-02-26T04:05:54.356Z,102256.88
2023-02-26T04:08:22.581Z,102261.91
2023-02-26T04:11:00.883Z,102263.59
2023-02-26T04:13:28.470Z,102273.63
2023-02-26T04:15:55.087Z,102287.00
2023-02-26T04:18:21.899Z,102290.84
2023-02-26T04:20:48.629Z,102295.03
2023-02-26T04:23:15.218Z,102291.47
2023-02-26T04:25:41.865Z,102295.31
2023-02-26T04:28:08.716Z,102298.75
2023-02-26T04:30:35.362Z,102300.81
2023-02-26T04:33:02.287Z,102300.47
2023-02-26T04:35:28.921Z,102299.06
2023-02-26T04:37:55.553Z,102305.13
2023-02-26T04:40:24.004Z,102298.63
2023-02-26T04:42:51.273Z,102299.22
2023-02-26T04:45:17.798Z,102313.06
2023-02-26T04:47:44.528Z,102309.16
2023-02-26T04:50:11.665Z,102311.00
2023-02-26T04:52:38.193Z,102312.81
2023-02-26T04:55:07.396Z,102323.06
2023-02-26T04:57:33.889Z,102324.25
2023-02-26T05:00:00.405Z,102324.91
2023-02-26T05:02:27.264Z,102323.41
2023-02-26T05:04:53.787Z,102330.53
2023-02-26T05:07:20.329Z,102326.03
2023-02-26T05:09:46.878Z,102325.19
2023-02-26T05:12:13.412Z,102336.94
2023-02-26T05:14:40.049Z,102338.44
2023-02-26T05:17:06.688Z,102331.72
2023-02-26T05:19:33.192Z,102333.47
2023-02-26T05:21:59.784Z,102338.16
2023-02-26T05:24:26.396Z,102343.19
2023-02-26T05:26:52.970Z,102332.97
2023-02-26T05:29:19.722Z,102329.38
2023-02-26T05:31:46.271Z,102319.31
2023-02-26T05:34:12.818Z,102311.59
2023-02-26T05:36:39.311Z,102314.69
2023-02-26T05:39:05.832Z,102313.25
2023-02-26T05:41:32.360Z,102313.69
2023-02-26T05:43:59.241Z,102317.81
2023-02-26T05:46:26.247Z,102309.56
2023-02-26T05:48:52.895Z,102303.28
2023-02-26T05:51:19.432Z,102320.84
2023-02-26T05:53:46.295Z,102314.19
2023-02-26T05:56:13.255Z,102317.44
2023-02-26T05:58:39.854Z,102321.47
2023-02-26T06:01:06.500Z,102323.50
2023-02-26T06:03:33.083Z,102334.88
2023-02-26T06:05:59.720Z,102341.22
2023-02-26T06:08:26.223Z,102359.34
2023-02-26T06:10:52.822Z,102369.41
2023-02-26T06:13:20.127Z,102377.16
2023-02-26T06:15:50.667Z,102380.69
2023-02-26T06:18:17.384Z,102394.59
2023-02-26T06:20:44.060Z,102402.22
2023-02-26T06:23:10.574Z,102409.88
2023-02-26T06:25:37.122Z,102421.63
2023-02-26T06:28:03.671Z,102419.53
2023-02-26T06:30:30.230Z,102429.31
2023-02-26T06:32:56.875Z,102437.31
2023-02-26T06:35:23.409Z,102451.16
2023-02-26T06:37:50.175Z,102453.91
2023-02-26T06:40:17.676Z,102465.91
2023-02-26T06:42:44.212Z,102464.81
2023-02-26T06:45:11.156Z,102465.59
2023-02-26T06:47:37.678Z,102473.56
2023-02-26T06:50:05.230Z,102471.03
2023-02-26T06:52:31.905Z,102477.97
2023-02-26T06:54:58.436Z,102484.09
2023-02-26T06:57:25.256Z,102487.53
2023-02-26T06:59:51.878Z,102485.34
2023-02-26T07:02:20.713Z,102504.72
2023-02-26T07:04:47.204Z,102502.75
2023-02-26T07:07:14.155Z,102498.47
2023-02-26T07:09:40.744Z,102512.19
2023-02-26T07:12:07.789Z,102508.47
2023-02-26T07:14:34.983Z,102518.38
2023-02-26T07:17:02.316Z,102526.41
2023-02-26T07:19:28.956Z,102531.63
2023-02-26T07:21:55.853Z,102533.16
2023-02-26T07:24:23.446Z,102528.88
2023-02-26T07:26:50.004Z,102543.06
2023-02-26T07:29:16.590Z,102546.97
2023-02-26T07:31:43.572Z,102545.69
2023-02-26T07:34:10.576Z,102553.25
2023-02-26T07:36:37.102Z,102557.94
2023-02-26T07:39:03.717Z,102565.34
2023-02-26T07:41:30.256Z,102568.78
2023-02-26T07:43:56.765Z,102572.91
2023-02-26T07:46:23.534Z,102578.41
2023-02-26T07:48:50.285Z,102574.78
2023-02-26T07:51:16.798Z,102579.81
2023-02-26T07:53:43.531Z,102581.03
2023-02-26T07:56:10.204Z,102589.25
2023-02-26T07:58:36.802Z,102588.97
2023-02-26T08:01:03.514Z,102595.41
2023-02-26T08:03:30.208Z,102601.41
2023-02-26T08:05:57.152Z,102608.50
2023-02-26T08:08:23.662Z,102611.56
2023-02-26T08:10:50.609Z,102613.78
2023-02-26T08:13:17.464Z,102623.72
2023-02-26T08:15:44.207Z,102618.47
2023-02-26T08:18:11.719Z,102625.75
2023-02-26T08:20:38.321Z,102623.47
2023-02-26T08:23:04.893Z,102623.22
2023-02-26T08:25:31.406Z,102625.53
2023-02-26T08:27:58.662Z,102626.28
2023-02-26T08:30:25.296Z,102635.78
2023-02-26T08:32:51.826Z,102634.84
2023-02-26T08:35:18.544Z,102636.34
2023-02-26T08:37:45.318Z,102637.25
2023-02-26T08:40:15.040Z,102653.84
2023-02-26T08:42:41.842Z,102652.22
2023-02-26T08:45:09.221Z,102654.25
2023-02-26T08:47:39.601Z,102659.09
2023-02-26T08:50:10.795Z,102658.81
2023-02-26T08:52:38.716Z,102660.69
2023-02-26T08:55:05.653Z,102662.34
2023-02-26T08:57:32.158Z,102664.91
2023-02-26T08:59:58.668Z,102679.56
2023-02-26T09:02:25.203Z,102671.50
2023-02-26T09:04:51.731Z,102676.44
2023-02-26T09:07:18.251Z,102680.75
2023-02-26T09:09:44.704Z,102689.03
2023-02-26T09:12:11.249Z,102690.91
2023-02-26T09:14:37.820Z,102689.38
2023-02-26T09:17:04.364Z,102704.09
2023-02-26T09:19:30.889Z,102708.59
2023-02-26T09:21:57.444Z,102703.75
2023-02-26T09:24:24.037Z,102715.03
2023-02-26T09:26:50.909Z,102727.00
2023-02-26T09:29:17.403Z,102723.59
2023-02-26T09:31:44.065Z,102730.34
2023-02-26T09:34:11.641Z,102731.78
2023-02-26T09:36:38.902Z,102729.38
2023-02-26T09:39:06.070Z,102737.34
2023-02-26T09:41:47.892Z,102734.19
2023-02-26T09:44:43.575Z,102737.16
2023-02-26T09:47:21.657Z,102739.22
2023-02-26T09:49:52.228Z,102744.38
2023-02-26T09:52:29.286Z,102740.19
2023-02-26T09:55:05.876Z,102743.72
2023-02-26T09:57:37.933Z,102747.22
2023-02-26T10:00:18.215Z,102751.94
2023-02-26T10:03:27.944Z,102758.09
2023-02-26T10:06:19.583Z,102763.59
2023-02-26T10:09:01.153Z,102764.00
2023-02-26T10:11:46.939Z,102769.44
2023-02-26T10:14:26.299Z,102774.09
2023-02-26T10:16:59.784Z,102780.47
2023-02-26T10:19:36.360Z,102780.50
2023-02-26T10:22:28.796Z,102787.63
2023-02-26T10:25:19.952Z,102775.66
2023-02-26T10:28:01.848Z,102790.25
2023-02-26T10:30:54.947Z,102787.50
2023-02-26T10:33:47.219Z,102788.09
2023-02-26T10:36:24.891Z,102773.66
2023-02-26T10:38:59.399Z,102785.19
2023-02-26T10:41:30.234Z,102801.38
2023-02-26T10:44:05.021Z,102804.63
2023-02-26T10:46:45.562Z,102789.28
2023-02-26T10:49:24.279Z,102805.56
2023-02-26T10:51:52.993Z,102804.75
2023-02-26T10:54:27.996Z,102811.44
2023-02-26T10:56:54.627Z,102802.09
2023-02-26T10:59:21.667Z,102813.66
2023-02-26T11:01:48.952Z,102811.22
2023-02-26T11:04:18.508Z,102820.88
2023-02-26T11:06:56.392Z,102813.09
2023-02-26T11:09:35.994Z,102835.78
2023-02-26T11:12:12.943Z,102828.94
2023-02-26T11:14:40.349Z,102816.34
2023-02-26T11:17:17.902Z,102815.50
2023-02-26T11:19:58.595Z,102822.97
2023-02-26T11:22:32.199Z,102830.16
2023-02-26T11:24:59.431Z,102823.09
2023-02-26T11:27:32.430Z,102819.47
2023-02-26T11:30:16.966Z,102820.53
2023-02-26T11:32:45.609Z,102816.00
2023-02-26T11:35:15.253Z,102822.22
2023-02-26T11:37:47.371Z,102814.88
2023-02-26T11:40:34.224Z,102827.91
2023-02-26T11:43:05.332Z,102823.72
2023-02-26T11:45:36.994Z,102821.81
2023-02-26T11:48:08.068Z,102817.78
2023-02-26T11:50:43.417Z,102815.25
2023-02-26T11:53:25.210Z,102813.19
2023-02-26T11:55:53.856Z,102819.34
2023-02-26T11:58:25.382Z,102820.56
2023-02-26T12:00:53.891Z,102813.88
2023-02-26T12:03:24.126Z,102816.94
2023-02-26T12:05:53.495Z,102808.81
2023-02-26T12:08:27.700Z,102807.56
2023-02-26T12:11:44.127Z,102808.84
2023-02-26T12:14:49.118Z,102820.25
2023-02-26T12:17:36.154Z,102808.44
2023-02-26T12:20:21.331Z,102808.94
2023-02-26T12:23:02.891Z,102807.84
2023-02-26T12:25:51.473Z,102806.94
2023-02-26T12:28:50.992Z,102802.66
2023-02-26T12:31:55.519Z,102800.72
2023-02-26T12:34:22.018Z,102799.19
2023-02-26T12:37:10.163Z,102800.94
2023-02-26T12:40:06.597Z,102805.09
2023-02-26T12:42:41.936Z,102797.69
2023-02-26T12:45:30.244Z,102805.47
2023-02-26T12:48:14.843Z,102796.00
2023-02-26T12:51:20.559Z,102792.69
2023-02-26T12:53:53.536Z,102790.44
2023-02-26T12:56:44.628Z,102797.84
2023-02-26T12:59:14.190Z,102795.44
2023-02-26T13:02:01.772Z,102782.00
2023-02-26T13:04:56.526Z,102788.50
2023-02-26T13:07:33.508Z,102785.03
2023-02-26T13:10:25.985Z,102783.00
2023-02-26T13:12:58.262Z,102791.97
2023-02-26T13:15:56.758Z,102789.09
2023-02-26T13:18:39.863Z,102782.75
2023-02-26T13:21:12.677Z,102791.38
2023-02-26T13:23:51.375Z,102793.28
2023-02-26T13:26:21.379Z,102791.75
2023-02-26T13:29:10.495Z,102796.28
2023-02-26T13:31:51.086Z,102797.34
2023-02-26T13:34:46.595Z,102785.00
2023-02-26T13:37:26.297Z,102786.19
2023-02-26T13:40:25.698Z,102793.78
2023-02-26T13:43:38.749Z,102791.97
2023-02-26T13:46:31.290Z,102784.66
2023-02-26T13:49:22.201Z,102790.53
2023-02-26T13:51:52.249Z,102802.25
2023-02-26T13:54:21.660Z,102784.41
2023-02-26T13:56:54.770Z,102791.34
2023-02-26T13:59:55.111Z,102795.03
2023-02-26T14:02:37.361Z,102796.38
2023-02-26T14:05:27.629Z,102796.91
2023-02-26T14:08:15.904Z,102799.88
2023-02-26T14:11:03.062Z,102801.66
2023-02-26T14:13:35.399Z,102788.59
2023-02-26T14:16:11.236Z,102789.78
2023-02-26T14:18:47.756Z,102796.25
2023-02-26T14:21:34.180Z,102797.59
2023-02-26T14:24:02.132Z,102801.56
2023-02-26T14:26:33.406Z,102796.66
2023-02-26T14:29:14.986Z,102797.72
2023-02-26T14:31:48.118Z,102799.25
2023-02-26T14:34:26.648Z,102806.41
2023-02-26T14:36:56.524Z,102797.44
2023-02-26T14:39:25.449Z,102797.72
2023-02-26T14:41:58.947Z,102800.00
2023-02-26T14:44:37.649Z,102799.88
2023-02-26T14:47:04.890Z,102800.09
2023-02-26T14:49:35.634Z,102800.06
2023-02-26T14:52:17.781Z,102804.53
2023-02-26T14:54:48.903Z,102795.59
2023-02-26T14:58:04.589Z,102795.28
2023-02-26T15:00:47.436Z,102804.44
2023-02-26T15:03:37.093Z,102798.44
2023-02-26T15:06:38.845Z,102805.03
2023-02-26T15:09:15.133Z,102804.22
2023-02-26T15:12:09.326Z,102799.41
2023-02-26T15:14:44.330Z,102801.41
2023-02-26T15:17:22.016Z,102803.88
2023-02-26T15:20:27.317Z,102800.78
2023-02-26T15:23:17.149Z,102802.56
2023-02-26T15:25:46.902Z,102802.50
2023-02-26T15:28:36.654Z,102811.44
2023-02-26T15:31:06.440Z,102804.19
2023-02-26T15:33:34.347Z,102807.84
2023-02-26T15:36:05.238Z,102810.97
2023-02-26T15:38:46.243Z,102812.63
2023-02-26T15:41:14.100Z,102805.84
2023-02-26T15:43:47.775Z,102812.13
2023-02-26T15:46:15.136Z,102818.13
2023-02-26T15:48:42.567Z,102816.88
2023-02-26T15:51:12.995Z,102815.09
2023-02-26T15:53:55.351Z,102820.34
2023-02-26T15:56:26.256Z,102811.53
2023-02-26T15:59:00.069Z,102823.72
2023-02-26T16:01:29.003Z,102817.03
2023-02-26T16:04:02.074Z,102812.22
2023-02-26T16:06:35.552Z,102806.44
2023-02-26T16:09:05.888Z,102811.06
2023-02-26T16:11:35.716Z,102802.75
2023-02-26T16:14:04.618Z,102815.69
2023-02-26T16:16:44.658Z,102810.53
2023-02-26T16:19:16.911Z,102815.03
2023-02-26T16:21:44.565Z,102811.69
2023-02-26T16:24:16.364Z,102812.00
2023-02-26T16:26:49.233Z,102814.53
2023-02-26T16:29:20.337Z,102821.13
2023-02-26T16:31:52.886Z,102820.41
2023-02-26T16:34:44.195Z,102821.16
2023-02-26T16:37:25.390Z,102816.06
2023-02-26T16:39:58.390Z,102822.59
2023-02-26T16:42:50.924Z,102815.66
2023-02-26T16:45:35.346Z,102820.78
2023-02-26T16:48:09.888Z,102826.16
2023-02-26T16:50:37.852Z,102817.03
2023-02-26T16:53:04.451Z,102823.94
2023-02-26T16:55:34.197Z,102826.16
2023-02-26T16:58:07.086Z,102838.84
2023-02-26T17:00:38.743Z,102839.66
2023-02-26T17:03:16.369Z,102842.47
2023-02-26T17:05:49.422Z,102844.66
2023-02-26T17:08:19.723Z,102848.06
2023-02-26T17:10:54.482Z,102845.78
2023-02-26T17:13:29.960Z,102845.56
2023-02-26T17:16:01.385Z,102850.41
2023-02-26T17:18:28.272Z,102853.22
2023-02-26T17:20:55.369Z,102859.06
2023-02-26T17:23:24.442Z,102852.75
2023-02-26T17:25:55.915Z,102860.72
2023-02-26T17:28:25.173Z,102860.78
2023-02-26T17:30:52.750Z,102872.34
2023-02-26T17:33:19.616Z,102863.56
2023-02-26T17:35:47.088Z,102871.53
2023-02-26T17:38:15.258Z,102874.78
2023-02-26T17:40:45.259Z,102868.53
2023-02-26T17:43:11.825Z,102871.22
2023-02-26T17:45:40.523Z,102878.53
2023-02-26T17:48:08.365Z,102882.19
2023-02-26T17:50:40.690Z,102878.94
2023-02-26T17:53:08.447Z,102882.66
2023-02-26T17:55:37.802Z,102878.94
2023-02-26T17:58:04.321Z,102890.34
2023-02-26T18:00:31.532Z,102891.56
2023-02-26T18:02:58.220Z,102894.56
2023-02-26T18:05:27.839Z,102892.13
2023-02-26T18:07:54.373Z,102900.25
2023-02-26T18:10:25.084Z,102900.66
2023-02-26T18:12:51.987Z,102899.41
2023-02-26T18:15:18.799Z,102902.59
2023-02-26T18:17:45.343Z,102901.94
2023-02-26T18:20:22.435Z,102908.59
2023-02-26T18:22:50.529Z,102897.09
2023-02-26T18:25:17.725Z,102897.44
2023-02-26T18:27:45.555Z,102900.75
2023-02-26T18:30:22.160Z,102903.28
2023-02-26T18:32:48.896Z,102903.28
2023-02-26T18:35:17.762Z,102906.44
2023-02-26T18:37:45.484Z,102905.69
2023-02-26T18:40:17.865Z,102906.22
2023-02-26T18:42:45.087Z,102908.28
2023-02-26T18:45:12.205Z,102905.19
2023-02-26T18:47:39.809Z,102896.13
2023-02-26T18:50:07.907Z,102902.66
2023-02-26T18:52:35.765Z,102911.44
2023-02-26T18:55:03.142Z,102910.53
2023-02-26T18:57:30.606Z,102910.69
2023-02-26T18:59:57.241Z,102906.84
2023-02-26T19:02:23.812Z,102910.75
2023-02-26T19:04:50.858Z,102915.22
2023-02-26T19:07:17.584Z,102914.94
2023-02-26T19:09:44.346Z,102922.19
2023-02-26T19:12:14.626Z,102919.28
2023-02-26T19:14:41.388Z,102909.91
2023-02-26T19:17:07.954Z,102915.03
2023-02-26T19:19:34.537Z,102917.16
2023-02-26T19:22:01.300Z,102921.81
2023-02-26T19:24:27.875Z,102920.72
2023-02-26T19:26:55.975Z,102915.53
2023-02-26T19:29:22.557Z,102920.78
2023-02-26T19:31:49.337Z,102924.66
2023-02-26T19:34:16.280Z,102929.22
2023-02-26T19:36:48.141Z,102925.31
2023-02-26T19:39:16.214Z,102928.03
2023-02-26T19:41:43.951Z,102925.09
2023-02-26T19:44:10.913Z,102930.41
2023-02-26T19:46:37.902Z,102925.59
2023-02-26T19:49:04.788Z,102933.13
2023-02-26T19:51:31.373Z,102930.00
2023-02-26T19:53:57.956Z,102926.91
2023-02-26T19:56:25.005Z,102928.47
2023-02-26T19:58:51.520Z,102937.19
2023-02-26T20:01:18.406Z,102938.84
2023-02-26T20:03:47.372Z,102939.38
2023-02-26T20:06:14.740Z,102938.63
2023-02-26T20:08:41.775Z,102932.28
2023-02-26T20:11:09.241Z,102931.19
2023-02-26T20:13:36.591Z,102930.16
2023-02-26T20:16:06.843Z,102940.63
2023-02-26T20:18:33.871Z,102937.41
2023-02-26T20:21:02.096Z,102939.88
2023-02-26T20:23:28.761Z,102934.47
2023-02-26T20:25:58.608Z,102939.94
2023-02-26T20:28:25.541Z,102935.84
2023-02-26T20:30:52.882Z,102941.06
2023-02-26T20:33:21.098Z,102941.66
2023-02-26T20:35:48.224Z,102940.88
2023-02-26T20:38:19.235Z,102942.38
2023-02-26T20:40:47.529Z,102948.81
2023-02-26T20:43:14.553Z,102950.66
2023-02-26T20:45:42.014Z,102952.25
2023-02-26T20:48:09.838Z,102960.28
2023-02-26T20:50:37.300Z,102951.66
2023-02-26T20:53:06.072Z,102960.44
2023-02-26T20:55:33.270Z,102961.53
2023-02-26T20:57:59.985Z,102957.16
2023-02-26T21:00:26.824Z,102953.97
2023-02-26T21:02:53.371Z,102956.41
2023-02-26T21:05:20.096Z,102956.81
2023-02-26T21:07:46.780Z,102960.28
2023-02-26T21:10:15.931Z,102963.66
2023-02-26T21:12:42.705Z,102961.88
2023-02-26T21:15:10.965Z,102968.28
2023-02-26T21:17:39.608Z,102962.22
2023-02-26T21:20:06.998Z,102972.09
2023-02-26T21:22:35.545Z,102969.47
2023-02-26T21:25:03.325Z,102979.78
2023-02-26T21:27:29.851Z,102980.34
2023-02-26T21:29:56.393Z,102981.19
2023-02-26T21:32:23.046Z,102981.53
2023-02-26T21:34:49.681Z,102978.00
2023-02-26T21:37:16.240Z,102977.00
2023-02-26T21:39:42.928Z,102982.03
2023-02-26T21:42:12.865Z,102978.16
2023-02-26T21:44:39.464Z,102982.53
2023-02-26T21:47:06.122Z,102986.34
2023-02-26T21:49:32.678Z,102985.47
2023-02-26T21:52:01.671Z,102981.00
2023-02-26T21:54:28.983Z,102980.84
2023-02-26T21:56:55.601Z,102979.66
2023-02-26T21:59:23.441Z,102979.75
2023-02-26T22:01:51.173Z,102978.22
2023-02-26T22:04:19.192Z,102983.81
2023-02-26T22:06:46.389Z,102977.13
2023-02-26T22:09:13.013Z,102983.22
2023-02-26T22:11:39.886Z,102985.75
2023-02-26T22:14:06.539Z,102995.34
2023-02-26T22:16:33.192Z,102985.06
2023-02-26T22:18:59.758Z,102988.94
2023-02-26T22:21:26.728Z,102984.41
2023-02-26T22:23:53.530Z,102989.28
2023-02-26T22:26:20.123Z,102986.84
2023-02-26T22:28:46.672Z,102996.88
2023-02-26T22:31:13.310Z,102992.72
2023-02-26T22:33:40.123Z,102986.91
2023-02-26T22:36:07.028Z,102990.53
2023-02-26T22:38:33.630Z,102985.41
2023-02-26T22:41:00.123Z,102993.63
2023-02-26T22:43:26.744Z,102984.53
2023-02-26T22:45:53.399Z,102992.63
2023-02-26T22:48:20.855Z,102988.41
2023-02-26T22:50:49.698Z,102986.56
2023-02-26T22:53:16.334Z,102985.09
2023-02-26T22:55:42.874Z,102995.56
2023-02-26T22:58:09.742Z,102996.56
2023-02-26T23:00:36.248Z,102991.81
2023-02-26T23:03:02.777Z,102990.41
2023-02-26T23:05:29.338Z,103002.84
2023-02-26T23:07:55.989Z,102996.16
2023-02-26T23:10:22.876Z,102996.59
2023-02-26T23:12:49.585Z,103000.47
2023-02-26T23:15:16.427Z,102995.47
2023-02-26T23:17:43.620Z,102999.56
2023-02-26T23:20:13.817Z,102994.94
2023-02-26T23:22:43.648Z,103001.31
2023-02-26T23:25:12.165Z,103003.25
2023-02-26T23:27:39.235Z,103002.41
2023-02-26T23:30:06.370Z,103005.19
2023-02-26T23:32:33.022Z,103001.97
2023-02-26T23:34:59.606Z,103003.81
2023-02-26T23:37:26.390Z,103005.56
2023-02-26T23:39:53.010Z,102996.88
2023-02-26T23:42:19.650Z,103011.31
2023-02-26T23:44:46.132Z,103001.81
2023-02-26T23:47:12.794Z,103009.56
2023-02-26T23:49:39.319Z,103008.78
2023-02-26T23:52:05.853Z,103013.38
2023-02-26T23:54:33.770Z,103019.53
2023-02-26T23:57:00.272Z,103017.00
2023-02-26T23:59:26.855Z,103019.00
